Time;durP1;ratioP1;P1;durP2;ratioP2;P2;SDS_P1;SDS_P2;PMS_P1;PMS_P2;Temp;Humidity;BMP_temperature;BMP_pressure;BME280_temperature;BME280_humidity;BME280_pressure;Samples;Min_cycle;Max_cycle;Signal;HPM_P1;HPM_P2
2023/03/08 00:00:19;;;;;;;6.25;1.08;;;;;;;15.36;100.00;101022.72;2080274;28;20046;-81
2023/03/08 00:01:42;;;;;;;5.28;1.00;;;;;;;15.33;100.00;101021.84;2079417;28;20095;-81
2023/03/08 00:03:04;;;;;;;6.20;0.88;;;;;;;15.31;100.00;101023.63;2085494;28;20119;-82
2023/03/08 00:04:28;;;;;;;3.65;1.00;;;;;;;15.30;100.00;101021.84;2088506;28;20048;-81
2023/03/08 00:05:49;;;;;;;3.08;0.80;;;;;;;15.26;100.00;101020.97;2077551;28;20041;-81
2023/03/08 00:07:11;;;;;;;3.72;0.80;;;;;;;15.26;100.00;101020.97;2083092;28;20055;-83
2023/03/08 00:08:33;;;;;;;5.65;0.85;;;;;;;15.27;100.00;101016.53;2086081;28;20059;-82
2023/03/08 00:09:55;;;;;;;2.50;0.60;;;;;;;15.26;100.00;101020.06;2085686;28;20037;-82
2023/03/08 00:11:16;;;;;;;4.20;0.73;;;;;;;15.29;100.00;101015.66;2093946;28;20049;-82
2023/03/08 00:12:38;;;;;;;4.28;0.80;;;;;;;15.31;100.00;101013.88;2088406;28;20492;-82
2023/03/08 00:14:02;;;;;;;2.10;0.85;;;;;;;15.35;100.00;101020.09;2080311;28;20529;-80
2023/03/08 00:15:24;;;;;;;5.80;1.20;;;;;;;15.37;100.00;101028.94;2091815;28;20078;-81
2023/03/08 00:16:46;;;;;;;3.70;1.10;;;;;;;15.37;100.00;101024.50;2088414;28;20049;-80
2023/03/08 00:18:08;;;;;;;5.25;1.20;;;;;;;15.33;100.00;101022.75;2085772;28;20123;-80
2023/03/08 00:19:32;;;;;;;5.63;1.05;;;;;;;15.30;100.00;101027.16;2086131;28;20057;-80
2023/03/08 00:20:58;;;;;;;4.60;1.13;;;;;;;15.24;100.00;101022.72;2085940;28;20052;-79
2023/03/08 00:22:21;;;;;;;4.25;0.70;;;;;;;15.19;100.00;101029.81;2094677;28;20390;-80
2023/03/08 00:23:43;;;;;;;3.83;0.60;;;;;;;15.18;100.00;101022.72;2080235;28;20056;-79
2023/03/08 00:25:07;;;;;;;7.00;1.10;;;;;;;15.20;100.00;101028.06;2091152;28;20051;-79
2023/03/08 00:26:29;;;;;;;3.33;0.65;;;;;;;15.20;100.00;101025.41;2088888;28;20067;-78
2023/03/08 00:27:52;;;;;;;3.13;0.75;;;;;;;15.23;100.00;101020.09;2095576;28;20127;-80
2023/03/08 00:29:14;;;;;;;2.40;0.90;;;;;;;15.25;100.00;101011.22;2089679;28;20045;-78
2023/03/08 00:30:35;;;;;;;2.53;0.77;;;;;;;15.30;100.00;101022.72;2086946;28;20059;-78
2023/03/08 00:31:58;;;;;;;2.95;0.85;;;;;;;15.31;100.00;101028.94;2087244;28;20041;-78
2023/03/08 00:33:19;;;;;;;4.75;0.88;;;;;;;15.32;100.00;101017.41;2087121;28;20044;-78
2023/03/08 00:34:45;;;;;;;2.20;0.80;;;;;;;15.35;100.00;101020.09;2086994;28;20045;-78
2023/03/08 00:36:13;;;;;;;4.10;1.00;;;;;;;15.36;100.00;101017.41;2079548;28;20041;-79
2023/03/08 00:37:35;;;;;;;3.03;0.80;;;;;;;15.36;100.00;101022.72;2094009;28;20040;-79
2023/03/08 00:38:57;;;;;;;5.25;1.25;;;;;;;15.37;100.00;101018.28;2089791;28;20533;-79
2023/03/08 00:40:19;;;;;;;6.63;0.75;;;;;;;15.35;100.00;101020.09;2081747;28;20125;-80
2023/03/08 00:41:43;;;;;;;1.52;0.50;;;;;;;15.35;100.00;101015.66;2092874;28;20048;-79
2023/03/08 00:43:04;;;;;;;4.25;0.65;;;;;;;15.36;100.00;101008.56;2081505;28;20053;-79
2023/03/08 00:44:26;;;;;;;5.25;1.02;;;;;;;15.37;100.00;101019.19;2084549;28;20045;-79
2023/03/08 00:45:47;;;;;;;6.05;1.23;;;;;;;15.36;100.00;101005.91;2086916;28;20041;-79
2023/03/08 00:47:10;;;;;;;6.45;1.10;;;;;;;15.34;100.00;101005.91;2078940;28;20525;-79
2023/03/08 00:48:32;;;;;;;2.33;0.68;;;;;;;15.33;100.00;101011.22;2078963;28;20041;-79
2023/03/08 00:49:56;;;;;;;4.43;0.77;;;;;;;15.32;100.00;101014.75;2078947;28;20056;-79
2023/03/08 00:51:19;;;;;;;5.13;1.20;;;;;;;15.32;100.00;101014.75;2084610;28;20078;-79
2023/03/08 00:52:42;;;;;;;3.58;1.00;;;;;;;15.30;100.00;101011.19;2078792;28;20081;-79
2023/03/08 00:54:04;;;;;;;7.60;0.90;;;;;;;15.27;100.00;101009.44;2084273;28;20067;-79
2023/03/08 00:55:25;;;;;;;3.38;1.00;;;;;;;15.26;100.00;101004.13;2095114;28;20084;-79
2023/03/08 00:56:48;;;;;;;5.85;1.20;;;;;;;15.23;100.00;101012.13;2081517;28;20152;-79
2023/03/08 00:58:09;;;;;;;6.13;1.05;;;;;;;15.21;100.00;101014.75;2076226;28;20065;-79
2023/03/08 00:59:31;;;;;;;2.55;0.70;;;;;;;15.18;100.00;101009.44;2075695;28;20045;-78
2023/03/08 01:00:53;;;;;;;6.38;0.90;;;;;;;15.18;100.00;101008.53;2084700;28;20812;-79
2023/03/08 01:02:15;;;;;;;5.28;1.17;;;;;;;15.15;100.00;101005.00;2090525;28;20048;-78
2023/03/08 01:03:36;;;;;;;3.70;1.00;;;;;;;15.12;100.00;101001.44;2094847;28;20730;-79
2023/03/08 01:05:00;;;;;;;5.65;1.10;;;;;;;15.09;100.00;101007.66;2086884;28;20047;-82
2023/03/08 01:06:23;;;;;;;6.07;1.00;;;;;;;15.08;100.00;101007.66;2094969;28;20056;-78
2023/03/08 01:07:44;;;;;;;6.22;0.77;;;;;;;15.08;100.00;101000.56;2086188;28;20044;-78
2023/03/08 01:09:06;;;;;;;3.65;1.00;;;;;;;15.04;100.00;100998.78;2094900;28;20036;-79
2023/03/08 01:10:28;;;;;;;4.75;1.33;;;;;;;15.01;100.00;100996.13;2089438;28;20426;-78
2023/03/08 01:11:50;;;;;;;3.70;1.08;;;;;;;15.00;100.00;100999.66;2078618;28;20045;-78
2023/03/08 01:13:11;;;;;;;4.45;0.90;;;;;;;14.97;100.00;100998.75;2078348;28;20045;-78
2023/03/08 01:14:34;;;;;;;7.13;1.10;;;;;;;14.96;100.00;100991.69;2081236;28;20107;-78
2023/03/08 01:15:55;;;;;;;6.25;0.93;;;;;;;14.96;100.00;100992.59;2078666;28;20152;-79
2023/03/08 01:17:17;;;;;;;5.53;1.08;;;;;;;14.95;100.00;100992.56;2070550;28;20380;-78
2023/03/08 01:18:40;;;;;;;4.63;0.80;;;;;;;14.95;100.00;100993.47;2070584;28;20131;-79
2023/03/08 01:20:04;;;;;;;2.45;0.77;;;;;;;14.94;100.00;100991.69;2067781;28;20108;-78
2023/03/08 01:21:27;;;;;;;4.72;0.98;;;;;;;14.95;100.00;100996.13;2076524;28;20046;-78
2023/03/08 01:22:49;;;;;;;4.45;1.40;;;;;;;14.97;100.00;100989.00;2070384;28;20448;-79
2023/03/08 01:24:12;;;;;;;6.25;1.00;;;;;;;15.00;100.00;100986.38;2067692;28;20457;-78
2023/03/08 01:25:33;;;;;;;4.70;0.80;;;;;;;15.03;100.00;100980.19;2067873;28;20127;-78
2023/03/08 01:26:59;;;;;;;6.38;1.60;;;;;;;15.04;100.00;100977.50;2075915;28;20160;-80
2023/03/08 01:28:21;;;;;;;6.72;1.17;;;;;;;15.04;100.00;100971.31;2071181;28;20120;-80
2023/03/08 01:29:44;;;;;;;7.07;0.73;;;;;;;15.03;100.00;100969.56;2075619;28;20536;-79
2023/03/08 01:31:09;;;;;;;3.25;1.17;;;;;;;15.02;100.00;100971.31;2072655;28;20049;-79
2023/03/08 01:32:34;;;;;;;2.40;0.73;;;;;;;15.00;100.00;100966.88;2069271;28;20038;-78
2023/03/08 01:33:57;;;;;;;4.63;0.93;;;;;;;15.00;100.00;100974.84;2075830;28;20049;-78
2023/03/08 01:35:22;;;;;;;3.88;0.90;;;;;;;14.98;100.00;100966.88;2078504;28;20052;-78
2023/03/08 01:36:44;;;;;;;4.43;1.15;;;;;;;14.97;100.00;100962.44;2078653;28;20466;-78
2023/03/08 01:38:07;;;;;;;7.95;1.15;;;;;;;14.96;100.00;100957.13;2077405;28;20053;-78
2023/03/08 01:39:28;;;;;;;6.18;1.58;;;;;;;14.94;100.00;100950.94;2078323;28;20078;-78
2023/03/08 01:40:55;;;;;;;5.45;1.40;;;;;;;14.92;100.00;100956.22;2070379;28;20454;-78
2023/03/08 01:42:18;;;;;;;7.40;1.10;;;;;;;14.92;100.00;100953.56;2068890;28;20046;-79
2023/03/08 01:43:41;;;;;;;6.72;1.13;;;;;;;14.94;100.00;100961.56;2067621;28;20057;-79
2023/03/08 01:45:06;;;;;;;5.65;1.33;;;;;;;14.92;100.00;100955.34;2067814;28;20050;-78
2023/03/08 01:46:30;;;;;;;7.32;1.13;;;;;;;14.91;100.00;100941.16;2068704;28;20072;-79
2023/03/08 01:48:00;;;;;;;5.25;0.82;;;;;;;14.92;100.00;100956.22;2071124;28;20053;-78
2023/03/08 01:49:42;;;;;;;7.93;1.60;;;;;;;14.91;100.00;100954.44;2080570;28;20064;-78
2023/03/08 01:51:10;;;;;;;4.05;0.82;;;;;;;14.90;100.00;100947.34;2070230;28;20041;-77
2023/03/08 01:52:35;;;;;;;2.83;1.10;;;;;;;14.88;100.00;100942.94;2068776;28;20070;-78
2023/03/08 01:54:01;;;;;;;5.70;0.75;;;;;;;14.88;100.00;100954.47;2068439;28;20038;-78
2023/03/08 01:55:22;;;;;;;7.32;1.25;;;;;;;14.92;100.00;100944.72;2076143;28;20128;-78
2023/03/08 01:56:46;;;;;;;9.50;1.42;;;;;;;14.93;100.00;100955.34;2078216;28;20110;-78
2023/03/08 01:58:07;;;;;;;6.85;1.42;;;;;;;14.92;100.00;100953.56;2078535;28;20034;-78
2023/03/08 01:59:32;;;;;;;4.13;0.73;;;;;;;14.91;100.00;100948.25;2070164;28;20064;-78
2023/03/08 02:00:54;;;;;;;5.32;1.00;;;;;;;14.90;100.00;100944.69;2070288;28;20073;-78
2023/03/08 02:02:21;;;;;;;5.80;1.10;;;;;;;14.91;100.00;100934.97;2067073;28;20100;-78
2023/03/08 02:03:44;;;;;;;4.72;1.10;;;;;;;14.90;100.00;100939.38;2076860;28;20045;-79
2023/03/08 02:05:08;;;;;;;4.32;1.10;;;;;;;14.87;100.00;100934.09;2070232;28;20046;-78
2023/03/08 02:06:32;;;;;;;3.97;0.68;;;;;;;14.85;100.00;100940.28;2067847;28;20741;-78
2023/03/08 02:07:54;;;;;;;4.75;0.95;;;;;;;14.85;100.00;100924.31;2067849;28;20049;-78
2023/03/08 02:09:20;;;;;;;3.63;1.20;;;;;;;14.85;100.00;100934.94;2067782;28;20052;-79
2023/03/08 02:10:42;;;;;;;4.90;1.20;;;;;;;14.85;100.00;100929.63;2072292;28;20137;-78
2023/03/08 02:12:08;;;;;;;3.63;0.93;;;;;;;14.83;100.00;100928.78;2080914;28;20042;-79
2023/03/08 02:13:30;;;;;;;7.03;1.60;;;;;;;14.80;100.00;100929.66;2093135;28;20045;-80
2023/03/08 02:14:53;;;;;;;10.73;1.77;;;;;;;14.79;100.00;100935.84;2081075;28;20533;-79
2023/03/08 02:16:17;;;;;;;5.32;1.30;;;;;;;14.79;100.00;100914.56;2076171;28;20053;-79
2023/03/08 02:17:40;;;;;;;;;;;;;;;14.72;100.00;100934.94;2075949;28;20042;-78
2023/03/08 02:19:04;;;;;;;4.30;1.10;;;;;;;14.72;100.00;100932.28;2075985;28;20425;-79
2023/03/08 02:20:30;;;;;;;5.80;1.80;;;;;;;14.72;100.00;100921.66;2076228;28;20053;-79
2023/03/08 02:21:54;;;;;;;6.30;1.20;;;;;;;14.72;100.00;100934.94;2076756;28;20103;-79
2023/03/08 02:23:19;;;;;;;6.60;1.42;;;;;;;14.73;100.00;100936.72;2075406;28;20064;-79
2023/03/08 02:24:42;;;;;;;5.80;1.10;;;;;;;14.74;100.00;100941.16;2076494;28;20553;-79
2023/03/08 02:26:06;;;;;;;7.38;1.05;;;;;;;14.73;100.00;100950.00;2084230;28;20401;-79
2023/03/08 02:27:30;;;;;;;6.70;1.20;;;;;;;14.72;100.00;100942.91;2086357;28;20053;-79
2023/03/08 02:28:52;;;;;;;4.65;0.80;;;;;;;14.70;100.00;100943.81;2078109;28;20120;-79
2023/03/08 02:30:18;;;;;;;4.82;1.50;;;;;;;14.70;100.00;100942.03;2085950;28;20088;-79
2023/03/08 02:31:40;;;;;;;4.50;1.20;;;;;;;14.70;100.00;100941.16;2080594;28;20045;-78
2023/03/08 02:33:03;;;;;;;6.80;1.40;;;;;;;14.68;100.00;100945.56;2084001;28;20060;-79
2023/03/08 02:34:25;;;;;;;6.03;1.08;;;;;;;14.65;100.00;100935.81;2086094;28;20117;-79
2023/03/08 02:35:47;;;;;;;6.15;1.45;;;;;;;14.64;100.00;100944.66;2086187;28;20580;-79
2023/03/08 02:37:09;;;;;;;8.20;1.25;;;;;;;14.65;100.00;100937.59;2077974;28;20045;-79
2023/03/08 02:38:32;;;;;;;8.90;1.45;;;;;;;14.66;100.00;100942.03;2080722;28;20144;-79
2023/03/08 02:39:54;;;;;;;8.13;1.60;;;;;;;14.67;100.00;100947.34;2092060;28;20041;-80
2023/03/08 02:41:19;;;;;;;6.07;1.55;;;;;;;14.66;100.00;100934.94;2080827;28;20149;-79
2023/03/08 02:42:40;;;;;;;3.28;1.33;;;;;;;14.65;100.00;100943.78;2075546;28;20823;-80
2023/03/08 02:44:03;;;;;;;5.95;1.67;;;;;;;14.66;100.00;100937.59;2083401;28;20045;-80
2023/03/08 02:45:25;;;;;;;6.18;1.20;;;;;;;14.69;100.00;100937.63;2080641;28;20045;-80
2023/03/08 02:46:47;;;;;;;5.97;1.10;;;;;;;14.71;100.00;100934.94;2083633;28;20055;-80
2023/03/08 02:48:10;;;;;;;4.13;1.25;;;;;;;14.71;100.00;100941.13;2080778;28;20099;-80
2023/03/08 02:49:32;;;;;;;6.72;1.05;;;;;;;14.69;100.00;100932.31;2085954;28;20556;-79
2023/03/08 02:50:54;;;;;;;4.53;1.15;;;;;;;14.69;100.00;100942.94;2094264;28;20040;-80
2023/03/08 02:52:16;;;;;;;12.98;1.15;;;;;;;14.71;100.00;100930.50;2089067;28;20048;-79
2023/03/08 02:53:39;;;;;;;5.55;1.52;;;;;;;14.73;100.00;100944.69;2085986;28;20083;-80
2023/03/08 02:55:00;;;;;;;5.43;0.80;;;;;;;14.74;100.00;100943.81;2086200;28;20041;-78
2023/03/08 02:56:23;;;;;;;;;;;;;;;14.69;100.00;100945.59;2086617;28;20076;-80
2023/03/08 02:57:45;;;;;;;5.70;1.27;;;;;;;14.70;100.00;100936.69;2083579;28;19920;-80
2023/03/08 02:59:07;;;;;;;5.68;1.27;;;;;;;14.72;100.00;100936.72;2083045;28;20047;-81
2023/03/08 03:00:29;;;;;;;3.53;0.98;;;;;;;14.74;100.00;100934.97;2083821;28;20397;-80
2023/03/08 03:01:51;;;;;;;3.67;1.27;;;;;;;14.75;100.00;100939.38;2091534;28;20060;-77
2023/03/08 03:03:13;;;;;;;3.00;0.90;;;;;;;14.77;100.00;100939.41;2094003;28;20040;-77
2023/03/08 03:04:35;;;;;;;7.90;1.40;;;;;;;14.79;100.00;100948.25;2086061;28;20551;-77
2023/03/08 03:05:57;;;;;;;6.75;1.13;;;;;;;14.78;100.00;100928.75;2082883;28;20147;-77
2023/03/08 03:07:25;;;;;;;5.55;1.30;;;;;;;14.78;100.00;100942.03;2086330;28;20045;-77
2023/03/08 03:08:49;;;;;;;3.45;1.15;;;;;;;14.79;100.00;100943.81;2091730;28;20052;-77
2023/03/08 03:10:12;;;;;;;5.45;1.00;;;;;;;14.79;100.00;100956.22;2086106;28;20037;-78
2023/03/08 03:11:34;;;;;;;;;;;;;;;14.70;100.00;100950.00;2083634;28;20080;-79
2023/03/08 03:12:56;;;;;;;2.90;0.73;;;;;;;14.70;100.00;100955.31;2077337;28;20216;-77
2023/03/08 03:14:22;;;;;;;7.82;1.73;;;;;;;14.70;100.00;100951.78;2076143;28;20056;-79
2023/03/08 03:15:44;;;;;;;9.43;1.30;;;;;;;14.67;100.00;100951.78;2075114;28;20045;-78
2023/03/08 03:17:05;;;;;;;3.15;0.85;;;;;;;14.67;100.00;100950.00;2080045;28;20770;-78
2023/03/08 03:18:28;;;;;;;5.97;1.20;;;;;;;14.68;100.00;100956.22;2085966;28;20044;-78
2023/03/08 03:19:49;;;;;;;6.45;0.98;;;;;;;14.66;100.00;100944.69;2077552;28;20452;-78
2023/03/08 03:21:13;;;;;;;7.93;1.23;;;;;;;14.66;100.00;100953.53;2082927;28;20057;-78
2023/03/08 03:22:35;;;;;;;7.15;1.00;;;;;;;14.66;100.00;100958.84;2080326;28;20049;-78
2023/03/08 03:23:59;;;;;;;4.10;1.02;;;;;;;14.65;100.00;100949.09;2075011;28;20041;-79
2023/03/08 03:25:28;;;;;;;2.58;1.00;;;;;;;14.62;100.00;100961.50;2085772;28;20532;-78
2023/03/08 03:26:51;;;;;;;6.72;1.38;;;;;;;14.63;100.00;100948.22;2077467;28;20037;-78
2023/03/08 03:28:14;;;;;;;4.93;1.20;;;;;;;14.66;100.00;100956.19;2085956;28;20056;-78
2023/03/08 03:29:36;;;;;;;4.63;1.10;;;;;;;14.66;100.00;100953.53;2077506;28;20056;-78
2023/03/08 03:31:09;;;;;;;3.45;1.15;;;;;;;14.67;100.00;100960.63;2085598;28;20051;-78
2023/03/08 03:32:30;;;;;;;9.82;1.20;;;;;;;14.67;100.00;100960.63;2077771;28;20061;-79
2023/03/08 03:33:53;;;;;;;8.45;1.42;;;;;;;14.70;100.00;100957.09;2077454;28;20131;-80
2023/03/08 03:35:17;;;;;;;5.78;1.23;;;;;;;14.72;100.00;100963.28;2075248;28;20049;-77
2023/03/08 03:36:39;;;;;;;6.05;1.15;;;;;;;14.73;100.00;100962.41;2083064;28;20148;-79
2023/03/08 03:38:00;;;;;;;3.80;1.05;;;;;;;14.76;100.00;100962.44;2077627;28;20045;-78
2023/03/08 03:39:24;;;;;;;7.80;1.40;;;;;;;14.76;100.00;100957.13;2077646;28;20510;-80
2023/03/08 03:40:48;;;;;;;5.32;1.60;;;;;;;14.80;100.00;100956.22;2075825;28;20045;-81
2023/03/08 03:42:10;;;;;;;4.88;0.90;;;;;;;14.81;100.00;100960.66;2077870;28;20050;-81
2023/03/08 03:43:37;;;;;;;5.63;1.30;;;;;;;14.86;100.00;100966.84;2078294;28;20057;-80
2023/03/08 03:45:02;;;;;;;5.68;0.85;;;;;;;14.91;100.00;100957.13;2084363;28;20049;-80
2023/03/08 03:46:25;;;;;;;6.20;1.48;;;;;;;14.92;100.00;100961.53;2086093;28;20513;-80
2023/03/08 03:47:48;;;;;;;3.45;1.15;;;;;;;14.95;100.00;100964.22;2077941;28;20120;-80
2023/03/08 03:49:11;;;;;;;7.45;1.42;;;;;;;14.96;100.00;100967.78;2075069;28;20038;-80
2023/03/08 03:50:34;;;;;;;7.50;1.30;;;;;;;14.98;100.00;100964.22;2083939;28;20052;-79
2023/03/08 03:52:04;;;;;;;4.05;0.98;;;;;;;15.00;100.00;100953.59;2078399;28;20064;-80
2023/03/08 03:53:33;;;;;;;5.55;1.23;;;;;;;15.03;100.00;100946.47;2077194;28;20048;-79
2023/03/08 03:54:57;;;;;;;4.78;1.15;;;;;;;15.08;100.00;100957.13;2075082;28;20050;-79
2023/03/08 03:56:20;;;;;;;5.25;1.00;;;;;;;15.11;100.00;100951.81;2077843;28;20088;-79
2023/03/08 03:57:43;;;;;;;6.38;1.55;;;;;;;15.15;100.00;100959.81;2080017;28;20121;-80
2023/03/08 03:59:10;;;;;;;1.13;0.95;;;;;;;15.19;100.00;100970.44;2080399;28;20049;-80
2023/03/08 04:00:32;;;;;;;3.40;1.00;;;;;;;15.19;100.00;100967.78;2083723;28;20041;-78
2023/03/08 04:02:06;;;;;;;5.20;0.90;;;;;;;15.21;100.00;100950.03;2082049;28;20065;-80
2023/03/08 04:03:35;;;;;;;4.75;0.93;;;;;;;15.21;100.00;100964.22;2088722;28;20041;-80
2023/03/08 04:04:58;;;;;;;4.78;1.00;;;;;;;15.22;100.00;100960.69;2087597;28;20057;-79
2023/03/08 04:06:25;;;;;;;4.90;1.02;;;;;;;15.21;100.00;100955.38;2085871;28;20060;-80
2023/03/08 04:07:47;;;;;;;3.83;0.95;;;;;;;15.22;100.00;100966.00;2087490;28;20056;-79
2023/03/08 04:09:14;;;;;;;2.63;0.93;;;;;;;15.23;100.00;100966.91;2092911;28;20044;-80
2023/03/08 04:10:38;;;;;;;4.13;1.10;;;;;;;15.22;100.00;100963.34;2087794;28;20049;-79
2023/03/08 04:12:04;;;;;;;3.47;0.90;;;;;;;15.24;100.00;100969.53;2087297;28;20045;-79
2023/03/08 04:13:27;;;;;;;3.70;0.60;;;;;;;15.26;100.00;100966.88;2086283;28;20045;-79
2023/03/08 04:14:49;;;;;;;3.45;0.95;;;;;;;15.28;100.00;100974.00;2087440;28;20060;-79
2023/03/08 04:16:14;;;;;;;4.65;1.33;;;;;;;15.29;100.00;100983.75;2084756;28;20057;-79
2023/03/08 04:17:37;;;;;;;3.72;0.90;;;;;;;15.29;100.00;100973.09;2095926;28;20098;-79
2023/03/08 04:19:00;;;;;;;4.57;1.17;;;;;;;15.28;100.00;100987.28;2095803;28;20135;-78
2023/03/08 04:20:23;;;;;;;5.47;1.00;;;;;;;15.28;100.00;100983.72;2090022;28;20590;-80
2023/03/08 04:21:50;;;;;;;5.20;1.10;;;;;;;15.25;100.00;100986.38;2088123;28;20146;-79
2023/03/08 04:23:13;;;;;;;3.45;1.00;;;;;;;15.25;100.00;100975.75;2084610;28;20069;-79
2023/03/08 04:24:38;;;;;;;2.63;0.88;;;;;;;15.26;100.00;100972.19;2077265;28;20849;-79
2023/03/08 04:26:07;;;;;;;4.25;1.10;;;;;;;15.29;100.00;100970.44;2092767;28;20102;-79
2023/03/08 04:27:31;;;;;;;3.95;0.80;;;;;;;15.30;100.00;100966.88;2087555;28;20090;-79
2023/03/08 04:28:52;;;;;;;7.30;1.38;;;;;;;15.33;100.00;100985.50;2087306;28;20382;-79
2023/03/08 04:30:15;;;;;;;4.50;1.20;;;;;;;15.35;100.00;100970.44;2084577;28;20064;-78
2023/03/08 04:31:37;;;;;;;6.60;0.98;;;;;;;15.36;100.00;100979.31;2087292;28;20110;-80
2023/03/08 04:33:03;;;;;;;3.65;1.02;;;;;;;15.37;100.00;100989.03;2089912;28;20040;-80
2023/03/08 04:34:33;;;;;;;5.28;0.98;;;;;;;15.36;100.00;100974.00;2089998;28;20045;-79
2023/03/08 04:35:55;;;;;;;7.18;1.65;;;;;;;15.40;100.00;100986.38;2087369;28;20051;-79
2023/03/08 04:37:19;;;;;;;4.88;1.15;;;;;;;15.41;100.00;100982.84;2093138;28;20390;-79
2023/03/08 04:38:47;;;;;;;6.38;0.93;;;;;;;15.41;100.00;100970.44;2087956;28;20102;-79
2023/03/08 04:40:11;;;;;;;4.90;1.17;;;;;;;15.42;100.00;100989.94;2085101;28;20040;-80
2023/03/08 04:41:42;;;;;;;4.90;0.85;;;;;;;15.40;100.00;100976.63;2088475;28;20501;-79
2023/03/08 04:43:10;;;;;;;4.50;0.70;;;;;;;15.40;100.00;100989.06;2088513;28;20102;-79
2023/03/08 04:44:35;;;;;;;3.00;0.80;;;;;;;15.39;100.00;100980.19;2081778;28;20042;-79
2023/03/08 04:45:58;;;;;;;8.27;1.30;;;;;;;15.38;100.00;100989.03;2093141;28;20059;-80
2023/03/08 04:47:20;;;;;;;4.57;0.98;;;;;;;15.40;100.00;100986.38;2087377;28;20037;-79
2023/03/08 04:48:42;;;;;;;6.43;2.03;;;;;;;15.39;100.00;100988.16;2087411;28;20047;-79
2023/03/08 04:50:06;;;;;;;7.20;1.58;;;;;;;15.39;100.00;101000.56;2084195;28;20139;-79
2023/03/08 04:51:30;;;;;;;5.28;0.98;;;;;;;15.37;100.00;100981.06;2085177;28;20048;-79
2023/03/08 04:52:55;;;;;;;4.93;0.90;;;;;;;15.37;100.00;100994.34;2086069;28;20136;-78
2023/03/08 04:54:18;;;;;;;5.60;1.27;;;;;;;15.36;100.00;100990.81;2084392;28;20434;-79
2023/03/08 04:55:45;;;;;;;4.85;1.13;;;;;;;15.36;100.00;100987.28;2087737;28;20493;-79
2023/03/08 04:57:08;;;;;;;1.67;1.10;;;;;;;15.34;100.00;100997.91;2084567;28;20052;-80
2023/03/08 04:58:31;;;;;;;4.65;1.10;;;;;;;15.32;100.00;100988.16;2087061;28;20427;-79
2023/03/08 04:59:53;;;;;;;3.65;1.00;;;;;;;15.31;100.00;100981.94;2084229;28;20037;-79
2023/03/08 05:01:18;;;;;;;4.82;1.52;;;;;;;15.30;100.00;100996.13;2084738;28;20062;-79
2023/03/08 05:02:40;;;;;;;5.93;1.10;;;;;;;15.30;100.00;101005.88;2093145;28;20055;-80
2023/03/08 05:04:10;;;;;;;4.30;1.00;;;;;;;15.30;100.00;100981.94;2087360;28;20118;-80
2023/03/08 05:05:34;;;;;;;6.13;1.33;;;;;;;15.31;100.00;100999.69;2087690;28;20096;-79
2023/03/08 05:06:55;;;;;;;5.50;1.52;;;;;;;15.31;100.00;100999.69;2089492;28;20041;-79
2023/03/08 05:08:21;;;;;;;3.10;0.90;;;;;;;15.33;100.00;101000.56;2084855;28;20107;-79
2023/03/08 05:09:44;;;;;;;5.03;1.30;;;;;;;15.35;100.00;100996.16;2093140;28;20048;-81
2023/03/08 05:11:05;;;;;;;4.35;1.35;;;;;;;15.36;100.00;100998.78;2086472;28;20483;-79
2023/03/08 05:12:32;;;;;;;8.40;4.45;;;;;;;15.41;100.00;101012.09;2086684;28;20072;-78
2023/03/08 05:13:58;;;;;;;7.97;2.42;;;;;;;15.40;100.00;101002.34;2079238;28;20049;-80
2023/03/08 05:15:22;;;;;;;4.30;0.88;;;;;;;15.38;100.00;101014.75;2087477;28;20414;-80
2023/03/08 05:16:44;;;;;;;4.85;1.33;;;;;;;15.37;100.00;100987.25;2086933;28;20485;-80
2023/03/08 05:18:09;;;;;;;6.35;1.63;;;;;;;15.35;100.00;100998.81;2087005;28;20052;-81
2023/03/08 05:19:32;;;;;;;3.90;1.15;;;;;;;15.32;100.00;101015.66;2079090;28;20050;-81
2023/03/08 05:20:55;;;;;;;9.77;1.65;;;;;;;15.34;100.00;100989.94;2079046;28;20363;-80
2023/03/08 05:22:18;;;;;;;6.20;1.35;;;;;;;15.34;100.00;101023.63;2084541;28;20041;-81
2023/03/08 05:23:43;;;;;;;8.35;1.70;;;;;;;15.34;100.00;101021.88;2087353;28;20091;-81
2023/03/08 05:25:08;;;;;;;8.90;1.35;;;;;;;15.34;100.00;101024.53;2078750;28;20379;-80
2023/03/08 05:26:30;;;;;;;3.20;1.15;;;;;;;15.33;100.00;101014.75;2084295;28;20041;-82
2023/03/08 05:27:54;;;;;;;7.45;4.47;;;;;;;15.34;100.00;101011.22;2078400;28;20045;-81
2023/03/08 05:29:18;;;;;;;7.95;2.08;;;;;;;15.33;100.00;101017.44;2076518;28;20041;-81
2023/03/08 05:30:39;;;;;;;4.45;0.90;;;;;;;15.34;100.00;101035.16;2078559;28;20077;-81
2023/03/08 05:32:02;;;;;;;4.93;1.50;;;;;;;15.35;100.00;101020.97;2092253;28;20067;-81
2023/03/08 05:33:24;;;;;;;6.85;1.13;;;;;;;15.39;100.00;101030.72;2080778;28;20461;-81
2023/03/08 05:34:47;;;;;;;3.60;1.30;;;;;;;15.41;100.00;101013.00;2086762;28;20060;-81
2023/03/08 05:36:17;;;;;;;6.35;2.05;;;;;;;15.42;100.00;101020.09;2079309;28;20045;-81
2023/03/08 05:37:39;;;;;;;3.83;1.20;;;;;;;15.42;100.00;101016.56;2076249;28;20046;-81
2023/03/08 05:39:01;;;;;;;5.88;1.42;;;;;;;15.42;100.00;101017.44;2092273;28;20408;-81
2023/03/08 05:40:33;;;;;;;7.63;1.77;;;;;;;15.45;100.00;101017.41;2089190;28;20048;-81
2023/03/08 05:41:55;;;;;;;8.63;1.75;;;;;;;15.49;100.00;101016.53;2078409;28;20148;-81
2023/03/08 05:43:25;;;;;;;4.95;1.30;;;;;;;15.53;100.00;101021.00;2079378;28;20052;-81
2023/03/08 05:44:46;;;;;;;2.85;1.08;;;;;;;15.57;100.00;101019.22;2075936;28;20038;-81
2023/03/08 05:46:14;;;;;;;6.85;1.13;;;;;;;15.63;100.00;101027.19;2085063;28;20055;-81
2023/03/08 05:47:38;;;;;;;2.38;0.90;;;;;;;15.68;100.00;101022.78;2078707;28;20042;-81
2023/03/08 05:49:02;;;;;;;5.75;1.00;;;;;;;15.73;100.00;101002.34;2078796;28;20573;-81
2023/03/08 05:50:28;;;;;;;5.95;1.63;;;;;;;15.77;100.00;101009.44;2076746;28;20072;-80
2023/03/08 05:51:50;;;;;;;4.18;1.20;;;;;;;15.80;100.00;101019.19;2075939;28;20120;-81
2023/03/08 05:53:13;;;;;;;4.22;1.45;;;;;;;15.80;100.00;101006.78;2076098;28;20053;-81
2023/03/08 05:54:35;;;;;;;6.15;1.00;;;;;;;15.79;100.00;101023.63;2091754;28;20059;-81
2023/03/08 05:56:15;;;;;;;8.20;1.40;;;;;;;15.78;100.00;101020.97;2081016;28;20084;-81
2023/03/08 05:57:43;;;;;;;5.00;1.20;;;;;;;15.75;100.00;101031.63;2088722;28;20044;-81
2023/03/08 05:59:07;;;;;;;4.55;1.27;;;;;;;15.73;100.00;101023.66;2082660;28;20513;-81
2023/03/08 06:00:30;;;;;;;3.53;0.90;;;;;;;15.69;100.00;101032.50;2083366;28;20555;-81
2023/03/08 06:01:54;;;;;;;4.78;1.27;;;;;;;15.67;100.00;101020.09;2083235;28;20070;-81
2023/03/08 06:03:36;;;;;;;5.60;1.10;;;;;;;15.64;100.00;101039.63;2086358;28;20135;-81
2023/03/08 06:04:58;;;;;;;4.75;1.10;;;;;;;15.62;100.00;101027.22;2086279;28;20041;-81
2023/03/08 06:06:23;;;;;;;3.92;0.95;;;;;;;15.61;100.00;101026.31;2078614;28;20088;-81
2023/03/08 06:07:44;;;;;;;5.65;1.90;;;;;;;15.60;100.00;101031.66;2084008;28;20045;-81
2023/03/08 06:09:09;;;;;;;4.15;1.13;;;;;;;15.58;100.00;101049.38;2086660;28;20111;-82
2023/03/08 06:10:34;;;;;;;8.90;1.70;;;;;;;15.58;100.00;101039.63;2089884;28;20055;-81
2023/03/08 06:11:57;;;;;;;4.30;1.00;;;;;;;15.58;100.00;101041.41;2080759;28;20061;-81
2023/03/08 06:13:19;;;;;;;5.75;1.35;;;;;;;15.62;100.00;101038.72;2083623;28;20397;-81
2023/03/08 06:14:44;;;;;;;8.65;1.60;;;;;;;15.78;100.00;101045.81;2078182;28;20084;-81
2023/03/08 06:16:11;;;;;;;4.20;1.27;;;;;;;15.96;100.00;101039.56;2077238;28;20045;-81
2023/03/08 06:17:33;;;;;;;4.63;1.10;;;;;;;16.17;100.00;101036.88;2076192;28;20045;-81
2023/03/08 06:18:56;;;;;;;8.05;1.80;;;;;;;16.33;100.00;101035.03;2086722;28;20037;-81
2023/03/08 06:20:19;;;;;;;7.88;1.70;;;;;;;16.49;100.00;101042.06;2078319;28;20514;-81
2023/03/08 06:21:44;;;;;;;6.50;1.55;;;;;;;16.63;100.00;101021.59;2076338;28;20145;-81
2023/03/08 06:23:06;;;;;;;5.15;1.40;;;;;;;16.77;100.00;101055.31;2083949;28;20045;-81
2023/03/08 06:24:28;;;;;;;3.40;1.00;;;;;;;16.85;100.00;101038.38;2077681;28;20060;-80